sensor_id;sensor_type;location;lat;lon;timestamp;pressure;altitude;pressure_sealevel;temperature;humidity
14885;BME280;7534;50.762;7.000;2022-10-31T00:00:21;149525.38;;;12.82;100.00
14885;BME280;7534;50.762;7.000;2022-10-31T00:02:47;149520.16;;;12.80;100.00
14885;BME280;7534;50.762;7.000;2022-10-31T00:05:13;149514.91;;;12.78;100.00
14885;BME280;7534;50.762;7.000;2022-10-31T00:07:39;149507.03;;;12.75;100.00
14885;BME280;7534;50.762;7.000;2022-10-31T00:10:05;149496.56;;;12.71;100.00
14885;BME280;7534;50.762;7.000;2022-10-31T00:12:31;149484.72;;;12.66;100.00
14885;BME280;7534;50.762;7.000;2022-10-31T00:14:56;149484.72;;;12.66;100.00
14885;BME280;7534;50.762;7.000;2022-10-31T00:17:22;149480.84;;;12.65;100.00
14885;BME280;7534;50.762;7.000;2022-10-31T00:19:48;149478.22;;;12.64;100.00
14885;BME280;7534;50.762;7.000;2022-10-31T00:22:14;149475.59;;;12.63;100.00
14885;BME280;7534;50.762;7.000;2022-10-31T00:24:40;149461.13;;;12.57;100.00
14885;BME280;7534;50.762;7.000;2022-10-31T00:27:06;149463.75;;;12.58;100.00
14885;BME280;7534;50.762;7.000;2022-10-31T00:29:32;149444.09;;;12.50;100.00
14885;BME280;7534;50.762;7.000;2022-10-31T00:31:57;149457.22;;;12.55;100.00
14885;BME280;7534;50.762;7.000;2022-10-31T00:34:23;149462.44;;;12.57;100.00
14885;BME280;7534;50.762;7.000;2022-10-31T00:36:48;149469.00;;;12.60;100.00
14885;BME280;7534;50.762;7.000;2022-10-31T00:39:14;149480.84;;;12.65;100.00
14885;BME280;7534;50.762;7.000;2022-10-31T00:41:40;149497.88;;;12.71;100.00
14885;BME280;7534;50.762;7.000;2022-10-31T00:44:05;149508.34;;;12.75;100.00
14885;BME280;7534;50.762;7.000;2022-10-31T00:46:31;149514.91;;;12.78;100.00
14885;BME280;7534;50.762;7.000;2022-10-31T00:48:57;149520.16;;;12.80;100.00
14885;BME280;7534;50.762;7.000;2022-10-31T00:51:22;149529.31;;;12.83;100.00
14885;BME280;7534;50.762;7.000;2022-10-31T00:53:48;149526.69;;;12.82;100.00
14885;BME280;7534;50.762;7.000;2022-10-31T00:56:14;149522.78;;;12.81;100.00
14885;BME280;7534;50.762;7.000;2022-10-31T00:58:39;149514.91;;;12.78;100.00
14885;BME280;7534;50.762;7.000;2022-10-31T01:01:05;149518.84;;;12.79;100.00
14885;BME280;7534;50.762;7.000;2022-10-31T01:03:33;149499.19;;;12.72;100.00
14885;BME280;7534;50.762;7.000;2022-10-31T01:06:06;149496.56;;;12.71;100.00
14885;BME280;7534;50.762;7.000;2022-10-31T01:08:33;149514.91;;;12.78;100.00
14885;BME280;7534;50.762;7.000;2022-10-31T01:13:31;149537.19;;;12.86;100.00
14885;BME280;7534;50.762;7.000;2022-10-31T01:15:58;149539.84;;;12.87;100.00
14885;BME280;7534;50.762;7.000;2022-10-31T01:18:26;149543.78;;;12.89;100.00
14885;BME280;7534;50.762;7.000;2022-10-31T01:21:01;149541.16;;;12.88;100.00
14885;BME280;7534;50.762;7.000;2022-10-31T01:23:28;149538.50;;;12.87;100.00
14885;BME280;7534;50.762;7.000;2022-10-31T01:26:20;149533.25;;;12.85;100.00
14885;BME280;7534;50.762;7.000;2022-10-31T01:28:49;149531.94;;;12.84;100.00
14885;BME280;7534;50.762;7.000;2022-10-31T01:31:17;149531.94;;;12.84;100.00
14885;BME280;7534;50.762;7.000;2022-10-31T01:33:43;149534.56;;;12.85;100.00
14885;BME280;7534;50.762;7.000;2022-10-31T01:38:43;149500.50;;;12.72;100.00
14885;BME280;7534;50.762;7.000;2022-10-31T01:41:13;149499.19;;;12.72;100.00
14885;BME280;7534;50.762;7.000;2022-10-31T01:46:38;149542.47;;;12.88;100.00
14885;BME280;7534;50.762;7.000;2022-10-31T01:49:13;149548.97;;;12.91;100.00
14885;BME280;7534;50.762;7.000;2022-10-31T01:51:50;149551.63;;;12.92;100.00
14885;BME280;7534;50.762;7.000;2022-10-31T01:54:21;149550.31;;;12.91;100.00
14885;BME280;7534;50.762;7.000;2022-10-31T01:56:52;149546.34;;;12.90;100.00
14885;BME280;7534;50.762;7.000;2022-10-31T01:59:21;149548.97;;;12.91;100.00
14885;BME280;7534;50.762;7.000;2022-10-31T02:01:51;149541.16;;;12.88;100.00
14885;BME280;7534;50.762;7.000;2022-10-31T02:04:19;149533.25;;;12.85;100.00
14885;BME280;7534;50.762;7.000;2022-10-31T02:06:57;149534.56;;;12.85;100.00
14885;BME280;7534;50.762;7.000;2022-10-31T02:09:25;149520.16;;;12.80;100.00
14885;BME280;7534;50.762;7.000;2022-10-31T02:11:56;149496.56;;;12.71;100.00
14885;BME280;7534;50.762;7.000;2022-10-31T02:14:25;149469.00;;;12.60;100.00
14885;BME280;7534;50.762;7.000;2022-10-31T02:16:53;149467.69;;;12.59;100.00
14885;BME280;7534;50.762;7.000;2022-10-31T02:19:40;149484.72;;;12.66;100.00
14885;BME280;7534;50.762;7.000;2022-10-31T02:22:29;149512.28;;;12.77;100.00
14885;BME280;7534;50.762;7.000;2022-10-31T02:33:32;149551.63;;;12.92;100.00
14885;BME280;7534;50.762;7.000;2022-10-31T02:36:29;149552.94;;;12.92;100.00
14885;BME280;7534;50.762;7.000;2022-10-31T02:39:24;149538.50;;;12.87;100.00
14885;BME280;7534;50.762;7.000;2022-10-31T02:42:32;149522.78;;;12.81;100.00
14885;BME280;7534;50.762;7.000;2022-10-31T02:47:53;149500.50;;;12.72;100.00
14885;BME280;7534;50.762;7.000;2022-10-31T02:50:28;149499.19;;;12.72;100.00
14885;BME280;7534;50.762;7.000;2022-10-31T02:52:56;149491.31;;;12.69;100.00
14885;BME280;7534;50.762;7.000;2022-10-31T02:57:57;149483.41;;;12.66;100.00
14885;BME280;7534;50.762;7.000;2022-10-31T03:00:24;149478.22;;;12.64;100.00
14885;BME280;7534;50.762;7.000;2022-10-31T03:03:13;149491.31;;;12.69;100.00
14885;BME280;7534;50.762;7.000;2022-10-31T03:05:59;149488.66;;;12.68;100.00
14885;BME280;7534;50.762;7.000;2022-10-31T03:11:10;149514.91;;;12.78;100.00
14885;BME280;7534;50.762;7.000;2022-10-31T03:13:46;149530.63;;;12.84;100.00
14885;BME280;7534;50.762;7.000;2022-10-31T03:16:47;149538.50;;;12.87;100.00
14885;BME280;7534;50.762;7.000;2022-10-31T03:19:29;149545.03;;;12.89;100.00
14885;BME280;7534;50.762;7.000;2022-10-31T03:22:16;149539.84;;;12.87;100.00
14885;BME280;7534;50.762;7.000;2022-10-31T03:24:42;149533.25;;;12.85;100.00
14885;BME280;7534;50.762;7.000;2022-10-31T03:27:12;149512.28;;;12.77;100.00
14885;BME280;7534;50.762;7.000;2022-10-31T03:29:42;149483.41;;;12.66;100.00
14885;BME280;7534;50.762;7.000;2022-10-31T03:32:17;149510.97;;;12.76;100.00
14885;BME280;7534;50.762;7.000;2022-10-31T03:34:45;149525.38;;;12.82;100.00
14885;BME280;7534;50.762;7.000;2022-10-31T03:37:18;149522.78;;;12.81;100.00
14885;BME280;7534;50.762;7.000;2022-10-31T03:39:46;149517.53;;;12.79;100.00
14885;BME280;7534;50.762;7.000;2022-10-31T03:42:30;149503.06;;;12.73;100.00
14885;BME280;7534;50.762;7.000;2022-10-31T03:45:06;149500.50;;;12.72;100.00
14885;BME280;7534;50.762;7.000;2022-10-31T03:47:36;149496.56;;;12.71;100.00
14885;BME280;7534;50.762;7.000;2022-10-31T03:50:04;149483.41;;;12.66;100.00
14885;BME280;7534;50.762;7.000;2022-10-31T03:52:45;149467.69;;;12.59;100.00
14885;BME280;7534;50.762;7.000;2022-10-31T03:55:19;149445.41;;;12.51;100.00
14885;BME280;7534;50.762;7.000;2022-10-31T03:57:57;149407.41;;;12.36;100.00
14885;BME280;7534;50.762;7.000;2022-10-31T04:00:25;149383.81;;;12.27;100.00
14885;BME280;7534;50.762;7.000;2022-10-31T04:03:01;149374.66;;;12.23;100.00
14885;BME280;7534;50.762;7.000;2022-10-31T04:05:31;149374.66;;;12.23;100.00
14885;BME280;7534;50.762;7.000;2022-10-31T04:07:59;149373.34;;;12.23;100.00
14885;BME280;7534;50.762;7.000;2022-10-31T04:10:28;149332.72;;;12.07;100.00
14885;BME280;7534;50.762;7.000;2022-10-31T04:13:04;149316.97;;;12.01;100.00
14885;BME280;7534;50.762;7.000;2022-10-31T04:15:32;149336.63;;;12.09;100.00
14885;BME280;7534;50.762;7.000;2022-10-31T04:18:01;149330.09;;;12.06;100.00
14885;BME280;7534;50.762;7.000;2022-10-31T04:20:39;149327.47;;;12.05;100.00
14885;BME280;7534;50.762;7.000;2022-10-31T04:23:19;149352.38;;;12.15;100.00
14885;BME280;7534;50.762;7.000;2022-10-31T04:25:45;149356.25;;;12.16;100.00
14885;BME280;7534;50.762;7.000;2022-10-31T04:28:11;149320.91;;;12.03;100.00
14885;BME280;7534;50.762;7.000;2022-10-31T04:30:37;149328.78;;;12.06;100.00
14885;BME280;7534;50.762;7.000;2022-10-31T04:33:02;149303.88;;;11.96;100.00
14885;BME280;7534;50.762;7.000;2022-10-31T04:35:28;149261.94;;;11.80;100.00
14885;BME280;7534;50.762;7.000;2022-10-31T04:37:54;149269.84;;;11.83;100.00
14885;BME280;7534;50.762;7.000;2022-10-31T04:40:19;149281.59;;;11.88;100.00
14885;BME280;7534;50.762;7.000;2022-10-31T04:42:45;149280.28;;;11.87;100.00
14885;BME280;7534;50.762;7.000;2022-10-31T04:45:10;149267.22;;;11.82;100.00
14885;BME280;7534;50.762;7.000;2022-10-31T04:47:36;149242.25;;;11.72;100.00
14885;BME280;7534;50.762;7.000;2022-10-31T04:50:02;149288.16;;;11.90;100.00
14885;BME280;7534;50.762;7.000;2022-10-31T04:52:28;149314.34;;;12.00;100.00
14885;BME280;7534;50.762;7.000;2022-10-31T04:54:54;149328.78;;;12.06;100.00
14885;BME280;7534;50.762;7.000;2022-10-31T04:57:19;149332.72;;;12.07;100.00
14885;BME280;7534;50.762;7.000;2022-10-31T04:59:45;149332.72;;;12.07;100.00
14885;BME280;7534;50.762;7.000;2022-10-31T05:02:11;149331.41;;;12.07;100.00
14885;BME280;7534;50.762;7.000;2022-10-31T05:04:36;149298.63;;;11.94;100.00
14885;BME280;7534;50.762;7.000;2022-10-31T05:07:02;149296.00;;;11.93;100.00
14885;BME280;7534;50.762;7.000;2022-10-31T05:09:28;149306.50;;;11.97;100.00
14885;BME280;7534;50.762;7.000;2022-10-31T05:11:53;149293.38;;;11.92;100.00
14885;BME280;7534;50.762;7.000;2022-10-31T05:14:19;149297.31;;;11.94;100.00
14885;BME280;7534;50.762;7.000;2022-10-31T05:16:44;149277.66;;;11.86;100.00
14885;BME280;7534;50.762;7.000;2022-10-31T05:19:10;149286.84;;;11.90;100.00
14885;BME280;7534;50.762;7.000;2022-10-31T05:21:36;149285.53;;;11.89;100.00
14885;BME280;7534;50.762;7.000;2022-10-31T05:24:01;149277.66;;;11.86;100.00
14885;BME280;7534;50.762;7.000;2022-10-31T05:26:27;149271.16;;;11.83;100.00
14885;BME280;7534;50.762;7.000;2022-10-31T05:28:53;149263.25;;;11.80;100.00
14885;BME280;7534;50.762;7.000;2022-10-31T05:31:19;149255.38;;;11.77;100.00
14885;BME280;7534;50.762;7.000;2022-10-31T05:33:44;149242.25;;;11.72;100.00
14885;BME280;7534;50.762;7.000;2022-10-31T05:36:10;149226.53;;;11.66;100.00
14885;BME280;7534;50.762;7.000;2022-10-31T05:38:35;149214.72;;;11.62;100.00
14885;BME280;7534;50.762;7.000;2022-10-31T05:41:01;149205.59;;;11.58;100.00
14885;BME280;7534;50.762;7.000;2022-10-31T05:43:28;149195.09;;;11.54;100.00
14885;BME280;7534;50.762;7.000;2022-10-31T05:45:55;149176.75;;;11.47;100.00
14885;BME280;7534;50.762;7.000;2022-10-31T05:48:21;149168.88;;;11.44;100.00
14885;BME280;7534;50.762;7.000;2022-10-31T05:50:49;149166.31;;;11.43;100.00
14885;BME280;7534;50.762;7.000;2022-10-31T05:53:15;149161.06;;;11.41;100.00
14885;BME280;7534;50.762;7.000;2022-10-31T05:55:42;149147.94;;;11.36;100.00
14885;BME280;7534;50.762;7.000;2022-10-31T05:58:10;149145.34;;;11.35;100.00
14885;BME280;7534;50.762;7.000;2022-10-31T06:00:36;149129.59;;;11.29;100.00
14885;BME280;7534;50.762;7.000;2022-10-31T06:03:08;149124.41;;;11.27;100.00
14885;BME280;7534;50.762;7.000;2022-10-31T06:05:34;149124.41;;;11.27;100.00
14885;BME280;7534;50.762;7.000;2022-10-31T06:08:00;149126.97;;;11.28;100.00
14885;BME280;7534;50.762;7.000;2022-10-31T06:10:27;149119.16;;;11.25;100.00
14885;BME280;7534;50.762;7.000;2022-10-31T06:12:53;149117.84;;;11.24;100.00
14885;BME280;7534;50.762;7.000;2022-10-31T06:15:19;149113.91;;;11.23;100.00
14885;BME280;7534;50.762;7.000;2022-10-31T06:17:44;149115.22;;;11.23;100.00
14885;BME280;7534;50.762;7.000;2022-10-31T06:20:10;149113.91;;;11.23;100.00
14885;BME280;7534;50.762;7.000;2022-10-31T06:22:36;149109.97;;;11.21;100.00
14885;BME280;7534;50.762;7.000;2022-10-31T06:25:02;149109.97;;;11.21;100.00
14885;BME280;7534;50.762;7.000;2022-10-31T06:27:28;149098.19;;;11.17;100.00
14885;BME280;7534;50.762;7.000;2022-10-31T06:29:54;149113.91;;;11.23;100.00
14885;BME280;7534;50.762;7.000;2022-10-31T06:32:19;149116.53;;;11.24;100.00
14885;BME280;7534;50.762;7.000;2022-10-31T06:34:45;149129.59;;;11.29;100.00
14885;BME280;7534;50.762;7.000;2022-10-31T06:37:14;149132.22;;;11.30;100.00
14885;BME280;7534;50.762;7.000;2022-10-31T06:39:40;149140.09;;;11.33;100.00
14885;BME280;7534;50.762;7.000;2022-10-31T06:42:06;149159.75;;;11.40;100.00
14885;BME280;7534;50.762;7.000;2022-10-31T06:44:32;149176.75;;;11.47;100.00
14885;BME280;7534;50.762;7.000;2022-10-31T06:46:58;149179.38;;;11.48;100.00
14885;BME280;7534;50.762;7.000;2022-10-31T06:49:24;149210.78;;;11.60;100.00
14885;BME280;7534;50.762;7.000;2022-10-31T06:51:50;149227.88;;;11.67;100.00
14885;BME280;7534;50.762;7.000;2022-10-31T06:54:17;149252.75;;;11.76;100.00
14885;BME280;7534;50.762;7.000;2022-10-31T06:56:45;149268.53;;;11.82;100.00
14885;BME280;7534;50.762;7.000;2022-10-31T06:59:12;149276.34;;;11.85;100.00
14885;BME280;7534;50.762;7.000;2022-10-31T07:01:37;149313.06;;;12.00;100.00
14885;BME280;7534;50.762;7.000;2022-10-31T07:04:03;149345.81;;;12.12;100.00
14885;BME280;7534;50.762;7.000;2022-10-31T07:06:29;149378.56;;;12.25;100.00
14885;BME280;7534;50.762;7.000;2022-10-31T07:08:55;149396.94;;;12.32;100.00
14885;BME280;7534;50.762;7.000;2022-10-31T07:11:20;149386.44;;;12.28;100.00
14885;BME280;7534;50.762;7.000;2022-10-31T07:13:46;149383.81;;;12.27;100.00
14885;BME280;7534;50.762;7.000;2022-10-31T07:16:11;149394.31;;;12.31;100.00
14885;BME280;7534;50.762;7.000;2022-10-31T07:18:39;149389.06;;;12.29;100.00
14885;BME280;7534;50.762;7.000;2022-10-31T07:21:05;149417.91;;;12.40;100.00
14885;BME280;7534;50.762;7.000;2022-10-31T07:23:31;149450.66;;;12.53;100.00
14885;BME280;7534;50.762;7.000;2022-10-31T07:25:58;149475.59;;;12.63;100.00
14885;BME280;7534;50.762;7.000;2022-10-31T07:28:26;149474.28;;;12.62;100.00
14885;BME280;7534;50.762;7.000;2022-10-31T07:30:57;149503.06;;;12.73;100.00
14885;BME280;7534;50.762;7.000;2022-10-31T07:33:24;149524.06;;;12.81;100.00
14885;BME280;7534;50.762;7.000;2022-10-31T07:35:52;149548.97;;;12.91;100.00
14885;BME280;7534;50.762;7.000;2022-10-31T07:38:18;149552.94;;;12.92;100.00
14885;BME280;7534;50.762;7.000;2022-10-31T07:40:50;149600.16;;;13.11;100.00
14885;BME280;7534;50.762;7.000;2022-10-31T07:43:16;149667.09;;;13.36;100.00
14885;BME280;7534;50.762;7.000;2022-10-31T07:45:42;149727.44;;;13.60;100.00
14885;BME280;7534;50.762;7.000;2022-10-31T07:48:07;149798.28;;;13.87;100.00
14885;BME280;7534;50.762;7.000;2022-10-31T07:50:33;149878.38;;;14.18;100.00
14885;BME280;7534;50.762;7.000;2022-10-31T07:53:09;149944.03;;;14.43;99.24
14885;BME280;7534;50.762;7.000;2022-10-31T07:55:36;149969.00;;;14.53;96.13
14885;BME280;7534;50.762;7.000;2022-10-31T07:58:05;149949.31;;;14.45;93.84
14885;BME280;7534;50.762;7.000;2022-10-31T08:00:33;149949.31;;;14.45;92.37
14885;BME280;7534;50.762;7.000;2022-10-31T08:03:11;149942.78;;;14.43;92.29
14885;BME280;7534;50.762;7.000;2022-10-31T08:05:37;149933.56;;;14.39;92.98
14885;BME280;7534;50.762;7.000;2022-10-31T08:08:04;149953.25;;;14.47;92.49
14885;BME280;7534;50.762;7.000;2022-10-31T08:10:31;149970.31;;;14.54;92.11
14885;BME280;7534;50.762;7.000;2022-10-31T08:13:06;150007.06;;;14.68;91.38
14885;BME280;7534;50.762;7.000;2022-10-31T08:15:33;150037.31;;;14.79;90.02
14885;BME280;7534;50.762;7.000;2022-10-31T08:18:02;150042.56;;;14.81;88.94
14885;BME280;7534;50.762;7.000;2022-10-31T08:20:28;150025.50;;;14.75;88.41
14885;BME280;7534;50.762;7.000;2022-10-31T08:22:57;150026.81;;;14.75;88.69
14885;BME280;7534;50.762;7.000;2022-10-31T08:25:24;150045.19;;;14.82;88.54
14885;BME280;7534;50.762;7.000;2022-10-31T08:27:51;150053.06;;;14.85;88.48
14885;BME280;7534;50.762;7.000;2022-10-31T08:30:23;150026.81;;;14.75;88.68
14885;BME280;7534;50.762;7.000;2022-10-31T08:33:05;150024.19;;;14.74;89.80
14885;BME280;7534;50.762;7.000;2022-10-31T08:35:34;150034.66;;;14.78;89.85
14885;BME280;7534;50.762;7.000;2022-10-31T08:38:01;150060.94;;;14.88;89.58
14885;BME280;7534;50.762;7.000;2022-10-31T08:40:29;150041.25;;;14.81;89.20
14885;BME280;7534;50.762;7.000;2022-10-31T08:43:02;150066.22;;;14.91;89.30
14885;BME280;7534;50.762;7.000;2022-10-31T08:45:29;150109.56;;;15.07;89.12
14885;BME280;7534;50.762;7.000;2022-10-31T08:48:01;150160.78;;;15.27;88.74
14885;BME280;7534;50.762;7.000;2022-10-31T08:50:29;150214.69;;;15.48;88.19
14885;BME280;7534;50.762;7.000;2022-10-31T08:53:17;150221.22;;;15.50;87.74
14885;BME280;7534;50.762;7.000;2022-10-31T08:55:45;150243.63;;;15.59;88.43
14885;BME280;7534;50.762;7.000;2022-10-31T08:58:15;150297.53;;;15.80;87.58
14885;BME280;7534;50.762;7.000;2022-10-31T09:00:42;150315.94;;;15.87;87.26
14885;BME280;7534;50.762;7.000;2022-10-31T09:03:14;150322.47;;;15.89;87.17
14885;BME280;7534;50.762;7.000;2022-10-31T09:05:41;150326.44;;;15.91;86.03
14885;BME280;7534;50.762;7.000;2022-10-31T09:08:08;150371.13;;;16.08;85.14
14885;BME280;7534;50.762;7.000;2022-10-31T09:10:36;150419.81;;;16.27;85.26
14885;BME280;7534;50.762;7.000;2022-10-31T09:13:10;150502.66;;;16.59;84.12
14885;BME280;7534;50.762;7.000;2022-10-31T09:15:39;150619.78;;;17.04;82.73
14885;BME280;7534;50.762;7.000;2022-10-31T09:18:07;150740.91;;;17.50;80.74
14885;BME280;7534;50.762;7.000;2022-10-31T09:20:36;150860.75;;;17.97;77.79
14885;BME280;7534;50.762;7.000;2022-10-31T09:23:10;150968.75;;;18.38;74.52
14885;BME280;7534;50.762;7.000;2022-10-31T09:25:36;151008.28;;;18.53;72.21
14885;BME280;7534;50.762;7.000;2022-10-31T09:28:05;151042.56;;;18.66;70.54
14885;BME280;7534;50.762;7.000;2022-10-31T09:30:34;151042.56;;;18.66;69.91
14885;BME280;7534;50.762;7.000;2022-10-31T09:33:09;151071.56;;;18.78;70.01
14885;BME280;7534;50.762;7.000;2022-10-31T09:35:35;151125.56;;;18.98;69.38
14885;BME280;7534;50.762;7.000;2022-10-31T09:38:24;151151.94;;;19.09;69.26
14885;BME280;7534;50.762;7.000;2022-10-31T09:47:46;151228.38;;;19.38;67.67
14885;BME280;7534;50.762;7.000;2022-10-31T09:50:25;151162.53;;;19.13;69.26
14885;BME280;7534;50.762;7.000;2022-10-31T09:53:05;151087.38;;;18.84;70.70
14885;BME280;7534;50.762;7.000;2022-10-31T09:55:43;150938.44;;;18.26;72.80
14885;BME280;7534;50.762;7.000;2022-10-31T09:58:26;150905.53;;;18.14;73.93
14885;BME280;7534;50.762;7.000;2022-10-31T10:00:58;150883.13;;;18.05;74.91
14885;BME280;7534;50.762;7.000;2022-10-31T10:03:32;150846.28;;;17.91;76.59
14885;BME280;7534;50.762;7.000;2022-10-31T10:06:18;150839.69;;;17.88;76.79
14885;BME280;7534;50.762;7.000;2022-10-31T10:08:46;150837.03;;;17.87;77.37
14885;BME280;7534;50.762;7.000;2022-10-31T10:14:21;150856.78;;;17.95;77.03
14885;BME280;7534;50.762;7.000;2022-10-31T10:17:33;150844.97;;;17.90;76.41
14885;BME280;7534;50.762;7.000;2022-10-31T10:20:31;150871.25;;;18.01;75.48
14885;BME280;7534;50.762;7.000;2022-10-31T10:25:50;150848.88;;;17.92;75.17
14885;BME280;7534;50.762;7.000;2022-10-31T10:28:30;150813.31;;;17.78;75.31
14885;BME280;7534;50.762;7.000;2022-10-31T10:31:16;150763.28;;;17.59;75.89
14885;BME280;7534;50.762;7.000;2022-10-31T10:34:01;150735.63;;;17.48;76.52
14885;BME280;7534;50.762;7.000;2022-10-31T10:36:43;150793.59;;;17.71;76.80
14885;BME280;7534;50.762;7.000;2022-10-31T10:39:34;150805.47;;;17.75;75.80
14885;BME280;7534;50.762;7.000;2022-10-31T10:42:11;150815.97;;;17.79;75.27
14885;BME280;7534;50.762;7.000;2022-10-31T10:44:57;150856.78;;;17.95;74.68
14885;BME280;7534;50.762;7.000;2022-10-31T10:47:46;150858.09;;;17.96;74.61
14885;BME280;7534;50.762;7.000;2022-10-31T10:50:20;150887.09;;;18.07;74.54
14885;BME280;7534;50.762;7.000;2022-10-31T10:55:43;150884.47;;;18.06;73.84
14885;BME280;7534;50.762;7.000;2022-10-31T10:58:13;150912.09;;;18.16;73.27
14885;BME280;7534;50.762;7.000;2022-10-31T11:00:42;150926.59;;;18.22;72.59
14885;BME280;7534;50.762;7.000;2022-10-31T11:03:10;150909.50;;;18.15;73.15
14885;BME280;7534;50.762;7.000;2022-10-31T11:08:29;150958.19;;;18.34;72.48
14885;BME280;7534;50.762;7.000;2022-10-31T11:11:02;150980.59;;;18.43;72.67
14885;BME280;7534;50.762;7.000;2022-10-31T11:13:30;150968.75;;;18.38;72.52
14885;BME280;7534;50.762;7.000;2022-10-31T11:18:34;151020.16;;;18.58;72.47
14885;BME280;7534;50.762;7.000;2022-10-31T11:21:03;151021.47;;;18.58;72.57
14885;BME280;7534;50.762;7.000;2022-10-31T11:23:30;151080.75;;;18.81;71.44
14885;BME280;7534;50.762;7.000;2022-10-31T11:26:06;151095.28;;;18.87;70.77
14885;BME280;7534;50.762;7.000;2022-10-31T11:28:33;151163.84;;;19.13;69.81
14885;BME280;7534;50.762;7.000;2022-10-31T11:31:10;151155.91;;;19.10;69.69
14885;BME280;7534;50.762;7.000;2022-10-31T11:33:55;151253.50;;;19.48;68.15
14885;BME280;7534;50.762;7.000;2022-10-31T11:36:38;151232.34;;;19.39;67.91
14885;BME280;7534;50.762;7.000;2022-10-31T11:39:15;151216.53;;;19.33;68.15
14885;BME280;7534;50.762;7.000;2022-10-31T11:41:43;151200.72;;;19.27;68.74
14885;BME280;7534;50.762;7.000;2022-10-31T11:44:19;151162.53;;;19.13;68.75
14885;BME280;7534;50.762;7.000;2022-10-31T11:46:54;151146.66;;;19.06;69.85
14885;BME280;7534;50.762;7.000;2022-10-31T11:49:39;151177.00;;;19.18;69.25
14885;BME280;7534;50.762;7.000;2022-10-31T11:54:58;151177.00;;;19.18;69.74
14885;BME280;7534;50.762;7.000;2022-10-31T11:57:33;151155.91;;;19.10;70.35
14885;BME280;7534;50.762;7.000;2022-10-31T12:00:28;151174.34;;;19.17;68.91
14885;BME280;7534;50.762;7.000;2022-10-31T12:06:14;151187.53;;;19.22;68.45
14885;BME280;7534;50.762;7.000;2022-10-31T12:08:42;151228.38;;;19.38;67.36
14885;BME280;7534;50.762;7.000;2022-10-31T12:16:59;151224.47;;;19.36;66.06
14885;BME280;7534;50.762;7.000;2022-10-31T12:22:39;151328.69;;;19.76;63.91
14885;BME280;7534;50.762;7.000;2022-10-31T12:25:37;151333.91;;;19.78;64.37
14885;BME280;7534;50.762;7.000;2022-10-31T12:34:08;151285.16;;;19.60;65.08
14885;BME280;7534;50.762;7.000;2022-10-31T12:36:41;151250.81;;;19.47;65.54
14885;BME280;7534;50.762;7.000;2022-10-31T13:00:10;151236.31;;;19.41;65.39
14885;BME280;7534;50.762;7.000;2022-10-31T13:02:46;151238.97;;;19.42;65.81
14885;BME280;7534;50.762;7.000;2022-10-31T13:05:27;151225.78;;;19.37;65.48
14885;BME280;7534;50.762;7.000;2022-10-31T13:08:33;151208.63;;;19.30;65.73
14885;BME280;7534;50.762;7.000;2022-10-31T13:11:20;151235.00;;;19.40;65.37
14885;BME280;7534;50.762;7.000;2022-10-31T13:14:06;151250.81;;;19.47;65.56
14885;BME280;7534;50.762;7.000;2022-10-31T13:16:44;151257.47;;;19.49;65.15
14885;BME280;7534;50.762;7.000;2022-10-31T13:19:22;151285.16;;;19.60;65.01
14885;BME280;7534;50.762;7.000;2022-10-31T13:22:00;151293.03;;;19.63;64.43
14885;BME280;7534;50.762;7.000;2022-10-31T13:24:36;151327.38;;;19.76;64.20
14885;BME280;7534;50.762;7.000;2022-10-31T13:27:27;151359.00;;;19.88;63.59
14885;BME280;7534;50.762;7.000;2022-10-31T13:30:19;151335.25;;;19.79;63.43
14885;BME280;7534;50.762;7.000;2022-10-31T13:33:18;151360.31;;;19.89;63.58
14885;BME280;7534;50.762;7.000;2022-10-31T13:36:20;151328.69;;;19.76;63.78
14885;BME280;7534;50.762;7.000;2022-10-31T13:39:01;151281.19;;;19.58;64.73
14885;BME280;7534;50.762;7.000;2022-10-31T13:41:53;151240.28;;;19.42;65.46
14885;BME280;7534;50.762;7.000;2022-10-31T13:44:27;151248.22;;;19.46;65.44
14885;BME280;7534;50.762;7.000;2022-10-31T13:46:56;151232.34;;;19.39;65.47
14885;BME280;7534;50.762;7.000;2022-10-31T13:49:38;151235.00;;;19.40;66.21
14885;BME280;7534;50.762;7.000;2022-10-31T13:54:44;151216.53;;;19.33;66.06
14885;BME280;7534;50.762;7.000;2022-10-31T13:57:19;151183.59;;;19.21;65.98
14885;BME280;7534;50.762;7.000;2022-10-31T13:59:59;151174.34;;;19.17;65.72
14885;BME280;7534;50.762;7.000;2022-10-31T14:02:33;151177.00;;;19.18;65.56
14885;BME280;7534;50.762;7.000;2022-10-31T14:05:31;151169.06;;;19.15;65.57
14885;BME280;7534;50.762;7.000;2022-10-31T14:08:01;151157.22;;;19.11;65.92
14885;BME280;7534;50.762;7.000;2022-10-31T14:10:35;151157.22;;;19.11;65.89
14885;BME280;7534;50.762;7.000;2022-10-31T14:13:32;151144.03;;;19.05;65.97
14885;BME280;7534;50.762;7.000;2022-10-31T14:16:15;151144.03;;;19.05;66.24
14885;BME280;7534;50.762;7.000;2022-10-31T14:18:51;151142.75;;;19.05;66.12
14885;BME280;7534;50.762;7.000;2022-10-31T14:21:30;151154.59;;;19.10;65.73
14885;BME280;7534;50.762;7.000;2022-10-31T14:23:57;151155.91;;;19.10;65.84
14885;BME280;7534;50.762;7.000;2022-10-31T14:28:53;151167.75;;;19.15;65.48
14885;BME280;7534;50.762;7.000;2022-10-31T14:34:32;151150.63;;;19.08;65.46
14885;BME280;7534;50.762;7.000;2022-10-31T14:37:33;151165.09;;;19.14;65.26
14885;BME280;7534;50.762;7.000;2022-10-31T14:48:24;151146.66;;;19.06;65.37
14885;BME280;7534;50.762;7.000;2022-10-31T14:51:02;151153.28;;;19.09;64.94
14885;BME280;7534;50.762;7.000;2022-10-31T14:53:34;151163.84;;;19.13;64.88
14885;BME280;7534;50.762;7.000;2022-10-31T14:56:01;151153.28;;;19.09;65.14
14885;BME280;7534;50.762;7.000;2022-10-31T14:58:47;151145.34;;;19.06;65.17
14885;BME280;7534;50.762;7.000;2022-10-31T15:01:30;151161.19;;;19.12;64.90
14885;BME280;7534;50.762;7.000;2022-10-31T15:04:26;151142.75;;;19.05;65.01